Disclaimer

Please do not use the information listed here in-flight or in-navigation, as they are not provided to us by the airports but are provided by volunteers, so they might be outdated.

Search


Regions


Airport information page

No radio frequency information is available.

Airport informations:
Latitude: 41° 57' 41.84" N
Longitude: 021° 37' 16.97" E
Elevation: 781 feet - 238 meters
Operating hours: Remarks
Operating agency: Military-civil joint use airport
Timezone: UTC+1(+2DT) - Dates notified by NOTAM
Fuel: Jet A+, Kerosene fuel, Type A, Jet A or JP-1 With icing inhibitor.

100/130 MIL Spec, low lead, aviation gasoline (BLUE)

Runway information:
16/34 - 8038 x 140 feet< - >2450 x 43 meters

Recent METARs:
LWSK 151700Z 00000KT 3900 BR BKN012 OVC033 06/05 Q1013 NOSIG
LWSK 151730Z 00000KT 3600 -DZ BR SCT012 OVC053 06/05 Q1013 NOSIG
LWSK 151800Z 00000KT 3100 -RA BR SCT012 OVC053 06/05 Q1013 NOSIG

Airport on the map: